Time;durP1;ratioP1;P1;durP2;ratioP2;P2;SDS_P1;SDS_P2;PMS_P1;PMS_P2;Temp;Humidity;BMP_temperature;BMP_pressure;BME280_temperature;BME280_humidity;BME280_pressure;Samples;Min_cycle;Max_cycle;Signal;HPM_P1;HPM_P2
2023/04/27 00:01:15;;;;;;;;;;;;;;;;;;5053026;28;19990;-58
2023/04/27 00:03:41;;;;;;;;;;;;;;;;;;5053570;28;19964;-58
2023/04/27 00:06:07;;;;;;;;;;;;;;;;;;5053710;28;19959;-57
2023/04/27 00:08:33;;;;;;;;;;;;;;;;;;5053188;28;19967;-58
2023/04/27 00:10:59;;;;;;;;;;;;;;;;;;5053589;28;19971;-58
2023/04/27 00:13:25;;;;;;;;;;;;;;;;;;5053612;28;20278;-56
2023/04/27 00:15:51;;;;;;;;;;;;;;;;;;5053247;28;19925;-59
2023/04/27 00:18:17;;;;;;;;;;;;;;;;;;5053362;28;19927;-58
2023/04/27 00:20:43;;;;;;;;;;;;;;;;;;5053262;28;19937;-58
2023/04/27 00:23:09;;;;;;;;;;;;;;;;;;5051405;28;19928;-58
2023/04/27 00:25:35;;;;;;;;;;;;;;;;;;5053373;28;19928;-59
2023/04/27 00:28:01;;;;;;;;;;;;;;;;;;5053203;28;20461;-57
2023/04/27 00:30:27;;;;;;;;;;;;;;;;;;5052663;28;19920;-57
2023/04/27 00:32:53;;;;;;;;;;;;;;;;;;5052789;28;19924;-58
2023/04/27 00:35:19;;;;;;;;;;;;;;;;;;5052991;28;19931;-57
2023/04/27 00:37:45;;;;;;;;;;;;;;;;;;5052557;28;19921;-58
2023/04/27 00:40:11;;;;;;;;;;;;;;;;;;5053067;28;19932;-58
2023/04/27 00:42:37;;;;;;;;;;;;;;;;;;5052984;28;19940;-57
2023/04/27 00:45:04;;;;;;;;;;;;;;;;;;5051576;28;20452;-57
2023/04/27 00:47:30;;;;;;;;;;;;;;;;;;5052759;28;20287;-59
2023/04/27 00:49:56;;;;;;;;;;;;;;;;;;5052778;28;19924;-59
2023/04/27 00:52:22;;;;;;;;;;;;;;;;;;5052214;28;19921;-59
2023/04/27 00:54:48;;;;;;;;;;;;;;;;;;5052889;28;19966;-59
2023/04/27 00:57:15;;;;;;;;;;;;;;;;;;5052768;28;19925;-58
2023/04/27 00:59:41;;;;;;;;;;;;;;;;;;5052203;28;19924;-58
2023/04/27 01:02:07;;;;;;;;;;;;;;;;;;5052546;28;19947;-58
2023/04/27 01:04:33;;;;;;;;;;;;;;;;;;5052686;28;19920;-58
2023/04/27 01:06:59;;;;;;;;;;;;;;;;;;5051491;28;19963;-58
2023/04/27 01:09:25;;;;;;;;;;;;;;;;;;5052815;28;20021;-58
2023/04/27 01:11:50;;;;;;;;;;;;;;;;;;5052574;28;20035;-58
2023/04/27 01:14:16;;;;;;;;;;;;;;;;;;5052062;28;19921;-58
2023/04/27 01:16:43;;;;;;;;;;;;;;;;;;5052454;28;19921;-59
2023/04/27 01:19:09;;;;;;;;;;;;;;;;;;5052446;28;20282;-58
2023/04/27 01:21:35;;;;;;;;;;;;;;;;;;5051379;28;19960;-59
2023/04/27 01:24:01;;;;;;;;;;;;;;;;;;5051979;28;20330;-57
2023/04/27 01:26:27;;;;;;;;;;;;;;;;;;5051999;28;19947;-58
2023/04/27 01:28:52;;;;;;;;;;;;;;;;;;5051709;28;19921;-58
2023/04/27 01:31:18;;;;;;;;;;;;;;;;;;5052115;28;20002;-57
2023/04/27 01:33:45;;;;;;;;;;;;;;;;;;5052016;28;19921;-58
2023/04/27 01:36:11;;;;;;;;;;;;;;;;;;5049998;28;20350;-58
2023/04/27 01:38:37;;;;;;;;;;;;;;;;;;5051641;28;19968;-58
2023/04/27 01:41:02;;;;;;;;;;;;;;;;;;5051523;28;20047;-57
2023/04/27 01:43:28;;;;;;;;;;;;;;;;;;5051444;28;19935;-57
2023/04/27 01:45:54;;;;;;;;;;;;;;;;;;5051884;28;19932;-59
2023/04/27 01:48:20;;;;;;;;;;;;;;;;;;5051781;28;20391;-59
2023/04/27 01:50:46;;;;;;;;;;;;;;;;;;5049888;28;20026;-59
2023/04/27 01:53:12;;;;;;;;;;;;;;;;;;5051743;28;19920;-58
2023/04/27 01:55:38;;;;;;;;;;;;;;;;;;5050784;28;20405;-59
2023/04/27 01:58:04;;;;;;;;;;;;;;;;;;5050849;28;19928;-57
2023/04/27 02:00:31;;;;;;;;;;;;;;;;;;5051377;28;20399;-59
2023/04/27 02:02:59;;;;;;;;;;;;;;;;;;5050375;28;20411;-57
2023/04/27 02:05:25;;;;;;;;;;;;;;;;;;5051087;28;20523;-58
2023/04/27 02:07:51;;;;;;;;;;;;;;;;;;5051517;28;19925;-57
2023/04/27 02:10:17;;;;;;;;;;;;;;;;;;5051603;28;19958;-58
2023/04/27 02:12:42;;;;;;;;;;;;;;;;;;5050839;28;19932;-57
2023/04/27 02:15:08;;;;;;;;;;;;;;;;;;5051424;28;19928;-57
2023/04/27 02:17:34;;;;;;;;;;;;;;;;;;5050001;28;19921;-59
2023/04/27 02:20:00;;;;;;;;;;;;;;;;;;5050668;28;20023;-59
2023/04/27 02:22:26;;;;;;;;;;;;;;;;;;5051435;28;19925;-59
2023/04/27 02:24:52;;;;;;;;;;;;;;;;;;5051029;28;19952;-58
2023/04/27 02:27:18;;;;;;;;;;;;;;;;;;5049148;28;19921;-58
2023/04/27 02:29:44;;;;;;;;;;;;;;;;;;5051180;28;19944;-58
2023/04/27 02:32:10;;;;;;;;;;;;;;;;;;5051112;28;19929;-58
2023/04/27 02:34:36;;;;;;;;;;;;;;;;;;5051045;28;20022;-57
2023/04/27 02:37:02;;;;;;;;;;;;;;;;;;5050508;28;19921;-58
2023/04/27 02:39:28;;;;;;;;;;;;;;;;;;5051089;28;19952;-57
2023/04/27 02:41:54;;;;;;;;;;;;;;;;;;5050880;28;19928;-59
2023/04/27 02:44:20;;;;;;;;;;;;;;;;;;5050142;28;19925;-57
2023/04/27 02:46:46;;;;;;;;;;;;;;;;;;5050879;28;19920;-59
2023/04/27 02:49:12;;;;;;;;;;;;;;;;;;5050824;28;19925;-59
2023/04/27 02:51:37;;;;;;;;;;;;;;;;;;5050269;28;19920;-59
2023/04/27 02:54:03;;;;;;;;;;;;;;;;;;5050851;28;19935;-59
2023/04/27 02:56:29;;;;;;;;;;;;;;;;;;5049774;28;20188;-58
2023/04/27 02:58:56;;;;;;;;;;;;;;;;;;5050291;28;19924;-57
2023/04/27 03:01:21;;;;;;;;;;;;;;;;;;5050651;28;19931;-59
2023/04/27 03:03:47;;;;;;;;;;;;;;;;;;5049352;28;19921;-57
2023/04/27 03:06:13;;;;;;;;;;;;;;;;;;5050021;28;19928;-59
2023/04/27 03:08:39;;;;;;;;;;;;;;;;;;5054390;28;19955;-58
2023/04/27 03:11:06;;;;;;;;;;;;;;;;;;5054797;28;20453;-57
2023/04/27 03:13:40;;;;;;;;;;;;;;;;;;5054251;28;19929;-58
2023/04/27 03:16:06;;;;;;;;;;;;;;;;;;5054719;28;19921;-59
2023/04/27 03:18:32;;;;;;;;;;;;;;;;;;5054555;28;19924;-59
2023/04/27 03:20:57;;;;;;;;;;;;;;;;;;5054053;28;20006;-58
2023/04/27 03:23:23;;;;;;;;;;;;;;;;;;5054124;28;20019;-59
2023/04/27 03:25:49;;;;;;;;;;;;;;;;;;5054543;28;19931;-59
2023/04/27 03:28:15;;;;;;;;;;;;;;;;;;5053649;28;19948;-59
2023/04/27 03:30:41;;;;;;;;;;;;;;;;;;5054006;28;19963;-58
2023/04/27 03:33:07;;;;;;;;;;;;;;;;;;5052776;28;19921;-58
2023/04/27 03:35:33;;;;;;;;;;;;;;;;;;5053798;28;19925;-58
2023/04/27 03:37:59;;;;;;;;;;;;;;;;;;5054325;28;20015;-57
2023/04/27 03:40:25;;;;;;;;;;;;;;;;;;5054271;28;20476;-58
2023/04/27 03:42:51;;;;;;;;;;;;;;;;;;5053685;28;19921;-59
2023/04/27 03:45:18;;;;;;;;;;;;;;;;;;5054167;28;19974;-59
2023/04/27 03:47:44;;;;;;;;;;;;;;;;;;5053976;28;19928;-59
2023/04/27 03:50:10;;;;;;;;;;;;;;;;;;5053330;28;19924;-60
2023/04/27 03:52:36;;;;;;;;;;;;;;;;;;5054073;28;19924;-59
2023/04/27 03:55:02;;;;;;;;;;;;;;;;;;5054101;28;19928;-58
2023/04/27 03:57:28;;;;;;;;;;;;;;;;;;5053455;28;19921;-58
2023/04/27 03:59:54;;;;;;;;;;;;;;;;;;5053850;28;20645;-58
2023/04/27 04:02:20;;;;;;;;;;;;;;;;;;5053772;28;19929;-58
2023/04/27 04:04:46;;;;;;;;;;;;;;;;;;5053541;28;20016;-58
2023/04/27 04:07:12;;;;;;;;;;;;;;;;;;5053896;28;20016;-59
2023/04/27 04:09:38;;;;;;;;;;;;;;;;;;5054004;28;20062;-59
2023/04/27 04:12:05;;;;;;;;;;;;;;;;;;5051589;28;19921;-58
2023/04/27 04:14:31;;;;;;;;;;;;;;;;;;5053767;28;20568;-58
2023/04/27 04:16:57;;;;;;;;;;;;;;;;;;5053679;28;19925;-60
2023/04/27 04:19:23;;;;;;;;;;;;;;;;;;5051855;28;19931;-59
2023/04/27 04:21:49;;;;;;;;;;;;;;;;;;5053410;28;19936;-59
2023/04/27 04:24:15;;;;;;;;;;;;;;;;;;5053103;28;19929;-56
2023/04/27 04:26:41;;;;;;;;;;;;;;;;;;5052575;28;19920;-59
2023/04/27 04:29:07;;;;;;;;;;;;;;;;;;5053162;28;20276;-59
2023/04/27 04:31:33;;;;;;;;;;;;;;;;;;5052797;28;19921;-58
2023/04/27 04:34:00;;;;;;;;;;;;;;;;;;5052959;28;20298;-58
2023/04/27 04:36:26;;;;;;;;;;;;;;;;;;5053034;28;19971;-58
2023/04/27 04:38:52;;;;;;;;;;;;;;;;;;5053161;28;20363;-59
2023/04/27 04:41:18;;;;;;;;;;;;;;;;;;5052412;28;19928;-59
2023/04/27 04:43:44;;;;;;;;;;;;;;;;;;5053110;28;19921;-58
2023/04/27 04:46:10;;;;;;;;;;;;;;;;;;5052914;28;19924;-60
2023/04/27 04:48:37;;;;;;;;;;;;;;;;;;5052251;28;20072;-60
2023/04/27 04:51:03;;;;;;;;;;;;;;;;;;5051378;28;20358;-59
2023/04/27 04:53:29;;;;;;;;;;;;;;;;;;5052985;28;20007;-59
2023/04/27 04:55:55;;;;;;;;;;;;;;;;;;5052474;28;19921;-58
2023/04/27 04:58:21;;;;;;;;;;;;;;;;;;5052762;28;20314;-58
2023/04/27 05:00:47;;;;;;;;;;;;;;;;;;5051115;28;19936;-59
2023/04/27 05:03:13;;;;;;;;;;;;;;;;;;5052096;28;19986;-56
2023/04/27 05:05:39;;;;;;;;;;;;;;;;;;5052708;28;19925;-59
2023/04/27 05:08:05;;;;;;;;;;;;;;;;;;5052500;28;19920;-58
2023/04/27 05:10:31;;;;;;;;;;;;;;;;;;5050126;28;19924;-58
2023/04/27 05:12:57;;;;;;;;;;;;;;;;;;5052644;28;19924;-58
2023/04/27 05:15:23;;;;;;;;;;;;;;;;;;5052497;28;19983;-59
2023/04/27 05:17:49;;;;;;;;;;;;;;;;;;5051780;28;20642;-59
2023/04/27 05:20:15;;;;;;;;;;;;;;;;;;5052363;28;20008;-59
2023/04/27 05:22:41;;;;;;;;;;;;;;;;;;5051838;28;20007;-58
2023/04/27 05:25:07;;;;;;;;;;;;;;;;;;5051414;28;19924;-57
2023/04/27 05:27:33;;;;;;;;;;;;;;;;;;5051911;28;19921;-58
2023/04/27 05:29:59;;;;;;;;;;;;;;;;;;5051938;28;20268;-59
2023/04/27 05:32:25;;;;;;;;;;;;;;;;;;5051335;28;19921;-58
2023/04/27 05:34:51;;;;;;;;;;;;;;;;;;5050868;28;20356;-58
2023/04/27 05:37:17;;;;;;;;;;;;;;;;;;5051952;28;19924;-58
2023/04/27 05:39:43;;;;;;;;;;;;;;;;;;5051365;28;19979;-58
2023/04/27 05:42:10;;;;;;;;;;;;;;;;;;5051655;28;19936;-58
2023/04/27 05:44:36;;;;;;;;;;;;;;;;;;5050790;28;19929;-59
2023/04/27 05:47:02;;;;;;;;;;;;;;;;;;5050442;28;19925;-60
2023/04/27 05:49:28;;;;;;;;;;;;;;;;;;5051515;28;19927;-59
2023/04/27 05:51:54;;;;;;;;;;;;;;;;;;5051805;28;20602;-59
2023/04/27 05:54:20;;;;;;;;;;;;;;;;;;5051699;28;19925;-59
2023/04/27 05:56:46;;;;;;;;;;;;;;;;;;5051155;28;19920;-59
2023/04/27 05:59:12;;;;;;;;;;;;;;;;;;5051620;28;19924;-59
2023/04/27 06:01:38;;;;;;;;;;;;;;;;;;5051220;28;19925;-59
2023/04/27 06:04:04;;;;;;;;;;;;;;;;;;5050961;28;19920;-58
2023/04/27 06:06:30;;;;;;;;;;;;;;;;;;5051514;28;19928;-58
2023/04/27 06:08:56;;;;;;;;;;;;;;;;;;5051308;28;20256;-58
2023/04/27 06:11:22;;;;;;;;;;;;;;;;;;5050292;28;19947;-59
2023/04/27 06:13:48;;;;;;;;;;;;;;;;;;5051404;28;19925;-59
2023/04/27 06:16:14;;;;;;;;;;;;;;;;;;5051409;28;20291;-60
2023/04/27 06:18:40;;;;;;;;;;;;;;;;;;5050383;28;19920;-60
2023/04/27 06:21:07;;;;;;;;;;;;;;;;;;5051071;28;19929;-59
2023/04/27 06:23:33;;;;;;;;;;;;;;;;;;5051086;28;20394;-58
2023/04/27 06:25:59;;;;;;;;;;;;;;;;;;5050625;28;19920;-59
2023/04/27 06:28:25;;;;;;;;;;;;;;;;;;5051136;28;19925;-58
2023/04/27 06:30:51;;;;;;;;;;;;;;;;;;5050971;28;19974;-58
2023/04/27 06:33:17;;;;;;;;;;;;;;;;;;5050623;28;19928;-59
2023/04/27 06:35:43;;;;;;;;;;;;;;;;;;5051034;28;19963;-58
2023/04/27 06:38:09;;;;;;;;;;;;;;;;;;5050797;28;19925;-60
2023/04/27 06:40:35;;;;;;;;;;;;;;;;;;5050658;28;20020;-59
2023/04/27 06:43:02;;;;;;;;;;;;;;;;;;5050745;28;19932;-57
2023/04/27 06:45:27;;;;;;;;;;;;;;;;;;5051320;28;19950;-60
2023/04/27 06:47:53;;;;;;;;;;;;;;;;;;5050708;28;19958;-60
2023/04/27 06:50:20;;;;;;;;;;;;;;;;;;5051279;28;19979;-60
2023/04/27 06:52:46;;;;;;;;;;;;;;;;;;5051140;28;20410;-59
2023/04/27 06:55:11;;;;;;;;;;;;;;;;;;5050606;28;19921;-58
2023/04/27 06:57:37;;;;;;;;;;;;;;;;;;5051265;28;20102;-59
2023/04/27 07:00:03;;;;;;;;;;;;;;;;;;5051024;28;19929;-59
2023/04/27 07:02:29;;;;;;;;;;;;;;;;;;5050709;28;19936;-58
2023/04/27 07:04:56;;;;;;;;;;;;;;;;;;5051300;28;19921;-58
2023/04/27 07:07:21;;;;;;;;;;;;;;;;;;5051027;28;19921;-58
2023/04/27 07:09:47;;;;;;;;;;;;;;;;;;5050558;28;20285;-58
2023/04/27 07:12:13;;;;;;;;;;;;;;;;;;5051193;28;19963;-58
2023/04/27 07:14:40;;;;;;;;;;;;;;;;;;5051168;28;19932;-60
2023/04/27 07:17:06;;;;;;;;;;;;;;;;;;5050826;28;19975;-60
2023/04/27 07:19:31;;;;;;;;;;;;;;;;;;5050821;28;20018;-59
2023/04/27 07:21:57;;;;;;;;;;;;;;;;;;5050993;28;19929;-59
2023/04/27 07:24:23;;;;;;;;;;;;;;;;;;5050148;28;19925;-59
2023/04/27 07:26:49;;;;;;;;;;;;;;;;;;5049037;28;19928;-59
2023/04/27 07:29:16;;;;;;;;;;;;;;;;;;5050682;28;20007;-60
2023/04/27 07:31:42;;;;;;;;;;;;;;;;;;5049970;28;19920;-58
2023/04/27 07:34:10;;;;;;;;;;;;;;;;;;5050546;28;20413;-59
2023/04/27 07:36:36;;;;;;;;;;;;;;;;;;5050535;28;19921;-60
2023/04/27 07:39:03;;;;;;;;;;;;;;;;;;5049776;28;19971;-59
2023/04/27 07:41:29;;;;;;;;;;;;;;;;;;5049980;28;19929;-59
2023/04/27 07:43:56;;;;;;;;;;;;;;;;;;5050359;28;19927;-59
2023/04/27 07:46:23;;;;;;;;;;;;;;;;;;5049605;28;19931;-60
2023/04/27 07:48:49;;;;;;;;;;;;;;;;;;5050056;28;20003;-60
2023/04/27 07:51:16;;;;;;;;;;;;;;;;;;5050310;28;19921;-60
2023/04/27 07:53:42;;;;;;;;;;;;;;;;;;5051563;28;19932;-60
2023/04/27 07:56:09;;;;;;;;;;;;;;;;;;5053760;28;19925;-59
2023/04/27 07:58:36;;;;;;;;;;;;;;;;;;5052360;28;20284;-59
2023/04/27 08:01:02;;;;;;;;;;;;;;;;;;5053191;28;19929;-59
2023/04/27 08:03:28;;;;;;;;;;;;;;;;;;5053865;28;19931;-60
2023/04/27 08:05:54;;;;;;;;;;;;;;;;;;5053737;28;19925;-59
2023/04/27 08:08:21;;;;;;;;;;;;;;;;;;5053002;28;19925;-59
2023/04/27 08:10:47;;;;;;;;;;;;;;;;;;5053325;28;20023;-59
2023/04/27 08:13:13;;;;;;;;;;;;;;;;;;5053584;28;20062;-59
2023/04/27 08:15:39;;;;;;;;;;;;;;;;;;5053134;28;19925;-60
2023/04/27 08:18:05;;;;;;;;;;;;;;;;;;5053676;28;19925;-60
2023/04/27 08:20:31;;;;;;;;;;;;;;;;;;5053095;28;20341;-60
2023/04/27 08:22:57;;;;;;;;;;;;;;;;;;5051501;28;19925;-60
2023/04/27 08:25:23;;;;;;;;;;;;;;;;;;5053251;28;19920;-58
2023/04/27 08:27:49;;;;;;;;;;;;;;;;;;5053234;28;20067;-58
2023/04/27 08:30:15;;;;;;;;;;;;;;;;;;5052491;28;19931;-59
2023/04/27 08:32:41;;;;;;;;;;;;;;;;;;5053287;28;19979;-60
2023/04/27 08:35:07;;;;;;;;;;;;;;;;;;5052213;28;19920;-60
2023/04/27 08:37:33;;;;;;;;;;;;;;;;;;5051298;28;20320;-59
2023/04/27 08:39:59;;;;;;;;;;;;;;;;;;5051788;28;20393;-59
2023/04/27 08:42:25;;;;;;;;;;;;;;;;;;5051594;28;19932;-58
2023/04/27 08:44:51;;;;;;;;;;;;;;;;;;5050994;28;19931;-58
2023/04/27 08:47:17;;;;;;;;;;;;;;;;;;5051462;28;19921;-59
2023/04/27 08:49:43;;;;;;;;;;;;;;;;;;5051630;28;19982;-58
2023/04/27 08:52:08;;;;;;;;;;;;;;;;;;5050889;28;20406;-59
2023/04/27 08:54:34;;;;;;;;;;;;;;;;;;5051573;28;19924;-60
2023/04/27 08:57:02;;;;;;;;;;;;;;;;;;5050944;28;19924;-58
2023/04/27 08:59:28;;;;;;;;;;;;;;;;;;5050909;28;19928;-59
2023/04/27 09:01:54;;;;;;;;;;;;;;;;;;5051189;28;20019;-59
2023/04/27 09:04:20;;;;;;;;;;;;;;;;;;5050888;28;20323;-59
2023/04/27 09:06:47;;;;;;;;;;;;;;;;;;5051189;28;20508;-60
2023/04/27 09:09:13;;;;;;;;;;;;;;;;;;5050776;28;19928;-59
2023/04/27 09:11:39;;;;;;;;;;;;;;;;;;5051057;28;19929;-59
2023/04/27 09:14:05;;;;;;;;;;;;;;;;;;5051149;28;19970;-59
2023/04/27 09:16:31;;;;;;;;;;;;;;;;;;5050491;28;20371;-59
2023/04/27 09:18:57;;;;;;;;;;;;;;;;;;5049559;28;20271;-60
2023/04/27 09:21:23;;;;;;;;;;;;;;;;;;5050838;28;19935;-60
2023/04/27 09:23:50;;;;;;;;;;;;;;;;;;5048664;28;19943;-59
2023/04/27 09:26:16;;;;;;;;;;;;;;;;;;5050762;28;20000;-60
2023/04/27 09:28:42;;;;;;;;;;;;;;;;;;5050796;28;19925;-57
2023/04/27 09:31:08;;;;;;;;;;;;;;;;;;5050144;28;20050;-59
2023/04/27 09:33:34;;;;;;;;;;;;;;;;;;5050721;28;19972;-59
2023/04/27 09:36:00;;;;;;;;;;;;;;;;;;5050833;28;19931;-60
2023/04/27 09:38:26;;;;;;;;;;;;;;;;;;5049735;28;20383;-59
2023/04/27 09:40:52;;;;;;;;;;;;;;;;;;5050485;28;19936;-59
2023/04/27 09:43:18;;;;;;;;;;;;;;;;;;5050585;28;20306;-59
2023/04/27 09:45:44;;;;;;;;;;;;;;;;;;5050053;28;20264;-59
2023/04/27 09:48:10;;;;;;;;;;;;;;;;;;5050267;28;19971;-60
2023/04/27 09:50:36;;;;;;;;;;;;;;;;;;5050402;28;19946;-60
2023/04/27 09:53:02;;;;;;;;;;;;;;;;;;5049765;28;20492;-60
2023/04/27 09:55:28;;;;;;;;;;;;;;;;;;5050396;28;19928;-59
2023/04/27 09:57:54;;;;;;;;;;;;;;;;;;5050247;28;19924;-60
2023/04/27 10:00:20;;;;;;;;;;;;;;;;;;5049607;28;19932;-59
2023/04/27 10:02:46;;;;;;;;;;;;;;;;;;5050187;28;20367;-59
2023/04/27 10:05:12;;;;;;;;;;;;;;;;;;5050344;28;19928;-59
2023/04/27 10:07:39;;;;;;;;;;;;;;;;;;5049586;28;19921;-60
2023/04/27 10:10:06;;;;;;;;;;;;;;;;;;5050247;28;20454;-60
2023/04/27 10:12:32;;;;;;;;;;;;;;;;;;5049874;28;19925;-59
2023/04/27 10:14:58;;;;;;;;;;;;;;;;;;5049554;28;19921;-59
2023/04/27 10:17:24;;;;;;;;;;;;;;;;;;5049232;28;20352;-60
2023/04/27 10:19:50;;;;;;;;;;;;;;;;;;5050071;28;19929;-59
2023/04/27 10:22:16;;;;;;;;;;;;;;;;;;5049444;28;19929;-60
2023/04/27 10:24:43;;;;;;;;;;;;;;;;;;5049546;28;20082;-60
2023/04/27 10:27:10;;;;;;;;;;;;;;;;;;5049580;28;19924;-60
2023/04/27 10:29:36;;;;;;;;;;;;;;;;;;5049393;28;19921;-59
2023/04/27 10:32:02;;;;;;;;;;;;;;;;;;5049816;28;20035;-60
2023/04/27 10:34:28;;;;;;;;;;;;;;;;;;5049948;28;20024;-60
2023/04/27 10:36:54;;;;;;;;;;;;;;;;;;5049130;28;20401;-59
2023/04/27 10:39:21;;;;;;;;;;;;;;;;;;5048517;28;19935;-59
2023/04/27 10:41:47;;;;;;;;;;;;;;;;;;5049764;28;19924;-59
2023/04/27 10:44:13;;;;;;;;;;;;;;;;;;5049353;28;20324;-59
2023/04/27 10:46:39;;;;;;;;;;;;;;;;;;5049767;28;19925;-60
2023/04/27 10:49:05;;;;;;;;;;;;;;;;;;5049145;28;19928;-59
2023/04/27 10:51:32;;;;;;;;;;;;;;;;;;5048934;28;19920;-59
2023/04/27 10:53:58;;;;;;;;;;;;;;;;;;5049681;28;20387;-61
2023/04/27 10:56:25;;;;;;;;;;;;;;;;;;5049667;28;19924;-61
2023/04/27 10:58:51;;;;;;;;;;;;;;;;;;5049096;28;19921;-61
2023/04/27 11:01:17;;;;;;;;;;;;;;;;;;5049149;28;19925;-59
2023/04/27 11:03:47;;;;;;;;;;;;;;;;;;5049403;28;19931;-59
2023/04/27 11:06:13;;;;;;;;;;;;;;;;;;5048919;28;19972;-60
2023/04/27 11:08:40;;;;;;;;;;;;;;;;;;5049423;28;20021;-60
2023/04/27 11:11:08;;;;;;;;;;;;;;;;;;5049093;28;19982;-60
2023/04/27 11:13:34;;;;;;;;;;;;;;;;;;5048454;28;19921;-59
2023/04/27 11:16:00;;;;;;;;;;;;;;;;;;5049410;28;19928;-60
2023/04/27 11:18:26;;;;;;;;;;;;;;;;;;5049447;28;19964;-60
2023/04/27 11:20:52;;;;;;;;;;;;;;;;;;5048551;28;20019;-60
2023/04/27 11:23:18;;;;;;;;;;;;;;;;;;5049140;28;19925;-59
2023/04/27 11:25:45;;;;;;;;;;;;;;;;;;5049063;28;19924;-61
2023/04/27 11:28:11;;;;;;;;;;;;;;;;;;5049367;28;19931;-61
2023/04/27 11:30:36;;;;;;;;;;;;;;;;;;5053056;28;19921;-61
2023/04/27 11:33:02;;;;;;;;;;;;;;;;;;5052854;28;19927;-59
2023/04/27 11:35:28;;;;;;;;;;;;;;;;;;5052594;28;19982;-60
2023/04/27 11:37:54;;;;;;;;;;;;;;;;;;5053053;28;19928;-61
2023/04/27 11:40:20;;;;;;;;;;;;;;;;;;5052991;28;19928;-60
2023/04/27 11:42:46;;;;;;;;;;;;;;;;;;5052391;28;19925;-60
2023/04/27 11:45:12;;;;;;;;;;;;;;;;;;5052760;28;19924;-61
2023/04/27 11:47:41;;;;;;;;;;;;;;;;;;5051442;28;20371;-59
2023/04/27 11:50:07;;;;;;;;;;;;;;;;;;5051826;28;19928;-60
2023/04/27 11:52:33;;;;;;;;;;;;;;;;;;5052712;28;19921;-60
2023/04/27 11:54:59;;;;;;;;;;;;;;;;;;5052423;28;20265;-60
2023/04/27 11:57:25;;;;;;;;;;;;;;;;;;5051003;28;19925;-61
2023/04/27 11:59:51;;;;;;;;;;;;;;;;;;5052547;28;20387;-61
2023/04/27 12:02:17;;;;;;;;;;;;;;;;;;5052414;28;19980;-61
2023/04/27 12:04:43;;;;;;;;;;;;;;;;;;5051854;28;19925;-60
2023/04/27 12:07:11;;;;;;;;;;;;;;;;;;5052462;28;20262;-60
2023/04/27 12:09:36;;;;;;;;;;;;;;;;;;5052710;28;19971;-60
2023/04/27 12:12:03;;;;;;;;;;;;;;;;;;5051695;28;19971;-61
2023/04/27 12:14:28;;;;;;;;;;;;;;;;;;5051023;28;19967;-60
2023/04/27 12:16:54;;;;;;;;;;;;;;;;;;5052308;28;19921;-60
2023/04/27 12:19:23;;;;;;;;;;;;;;;;;;5051295;28;20320;-60
2023/04/27 12:21:51;;;;;;;;;;;;;;;;;;5050579;28;19935;-59
2023/04/27 12:24:17;;;;;;;;;;;;;;;;;;5052072;28;19995;-60
2023/04/27 12:26:43;;;;;;;;;;;;;;;;;;5051499;28;19968;-60
2023/04/27 12:29:09;;;;;;;;;;;;;;;;;;5052142;28;20402;-60
2023/04/27 12:31:35;;;;;;;;;;;;;;;;;;5051960;28;19943;-60
2023/04/27 12:34:01;;;;;;;;;;;;;;;;;;5051826;28;19921;-60
2023/04/27 12:36:27;;;;;;;;;;;;;;;;;;5051626;28;19925;-60
2023/04/27 12:38:53;;;;;;;;;;;;;;;;;;5050360;28;20062;-60
2023/04/27 12:41:19;;;;;;;;;;;;;;;;;;5050938;28;19929;-60
2023/04/27 12:43:47;;;;;;;;;;;;;;;;;;5051293;28;19936;-60
2023/04/27 12:46:13;;;;;;;;;;;;;;;;;;5051688;28;20012;-60
2023/04/27 12:48:41;;;;;;;;;;;;;;;;;;5049860;28;20050;-60
2023/04/27 12:51:07;;;;;;;;;;;;;;;;;;5050966;28;20379;-59
2023/04/27 12:53:33;;;;;;;;;;;;;;;;;;5051313;28;20383;-59
2023/04/27 12:56:00;;;;;;;;;;;;;;;;;;5050273;28;19921;-61
2023/04/27 12:58:26;;;;;;;;;;;;;;;;;;5051169;28;20013;-60
2023/04/27 13:00:52;;;;;;;;;;;;;;;;;;5051136;28;20070;-60
2023/04/27 13:03:18;;;;;;;;;;;;;;;;;;5051364;28;19955;-60
2023/04/27 13:05:45;;;;;;;;;;;;;;;;;;5050424;28;19920;-60
2023/04/27 13:08:11;;;;;;;;;;;;;;;;;;5050972;28;19927;-60
2023/04/27 13:10:37;;;;;;;;;;;;;;;;;;5051221;28;19921;-60
2023/04/27 13:13:02;;;;;;;;;;;;;;;;;;5050660;28;19932;-61
2023/04/27 13:15:28;;;;;;;;;;;;;;;;;;5049941;28;19928;-60
2023/04/27 13:17:56;;;;;;;;;;;;;;;;;;5050777;28;19921;-60
2023/04/27 13:20:22;;;;;;;;;;;;;;;;;;5050691;28;20291;-60
2023/04/27 13:22:48;;;;;;;;;;;;;;;;;;5050354;28;19931;-60
2023/04/27 13:25:15;;;;;;;;;;;;;;;;;;5051050;28;19921;-60
2023/04/27 13:27:41;;;;;;;;;;;;;;;;;;5050312;28;20386;-60
2023/04/27 13:30:07;;;;;;;;;;;;;;;;;;5051222;28;20069;-60
2023/04/27 13:32:33;;;;;;;;;;;;;;;;;;5050455;28;19920;-60
2023/04/27 13:34:59;;;;;;;;;;;;;;;;;;5050322;28;19973;-60
2023/04/27 13:37:25;;;;;;;;;;;;;;;;;;5050737;28;19932;-60
2023/04/27 13:39:51;;;;;;;;;;;;;;;;;;5049063;28;20400;-59
2023/04/27 13:42:17;;;;;;;;;;;;;;;;;;5048488;28;20012;-59
2023/04/27 13:44:43;;;;;;;;;;;;;;;;;;5050338;28;19920;-59
2023/04/27 13:47:09;;;;;;;;;;;;;;;;;;5050872;28;19921;-59
2023/04/27 13:49:35;;;;;;;;;;;;;;;;;;5050182;28;19981;-61
2023/04/27 13:52:01;;;;;;;;;;;;;;;;;;5049968;28;20015;-60
2023/04/27 13:54:27;;;;;;;;;;;;;;;;;;5050590;28;20337;-60
2023/04/27 13:56:53;;;;;;;;;;;;;;;;;;5049639;28;20383;-60
2023/04/27 13:59:20;;;;;;;;;;;;;;;;;;5050321;28;20190;-60
2023/04/27 14:01:46;;;;;;;;;;;;;;;;;;5049928;28;19928;-60
2023/04/27 14:04:12;;;;;;;;;;;;;;;;;;5049376;28;20399;-60
2023/04/27 14:06:38;;;;;;;;;;;;;;;;;;5050234;28;19921;-60
2023/04/27 14:09:04;;;;;;;;;;;;;;;;;;5050062;28;19928;-59
2023/04/27 14:11:30;;;;;;;;;;;;;;;;;;5049094;28;19967;-59
2023/04/27 14:13:56;;;;;;;;;;;;;;;;;;5050113;28;19975;-60
2023/04/27 14:16:23;;;;;;;;;;;;;;;;;;5048653;28;20366;-59
2023/04/27 14:18:49;;;;;;;;;;;;;;;;;;5049521;28;20031;-60
2023/04/27 14:21:15;;;;;;;;;;;;;;;;;;5049925;28;20023;-59
2023/04/27 14:23:40;;;;;;;;;;;;;;;;;;5050049;28;20373;-58
2023/04/27 14:26:07;;;;;;;;;;;;;;;;;;5049111;28;19921;-59
2023/04/27 14:28:33;;;;;;;;;;;;;;;;;;5049743;28;20027;-59
2023/04/27 14:30:59;;;;;;;;;;;;;;;;;;5049676;28;20602;-59
2023/04/27 14:33:25;;;;;;;;;;;;;;;;;;5049304;28;19986;-60
2023/04/27 14:35:51;;;;;;;;;;;;;;;;;;5049817;28;19920;-60
2023/04/27 14:38:17;;;;;;;;;;;;;;;;;;5049720;28;19921;-60
2023/04/27 14:40:43;;;;;;;;;;;;;;;;;;5049058;28;19975;-59
2023/04/27 14:43:09;;;;;;;;;;;;;;;;;;5049845;28;19920;-60
2023/04/27 14:45:35;;;;;;;;;;;;;;;;;;5049624;28;19954;-58
2023/04/27 14:48:01;;;;;;;;;;;;;;;;;;5048932;28;20486;-59
2023/04/27 14:50:27;;;;;;;;;;;;;;;;;;5049330;28;19963;-60
2023/04/27 14:52:56;;;;;;;;;;;;;;;;;;5049144;28;19928;-59
2023/04/27 14:55:23;;;;;;;;;;;;;;;;;;5048962;28;19925;-59
2023/04/27 14:57:50;;;;;;;;;;;;;;;;;;5049550;28;19920;-59
2023/04/27 15:00:16;;;;;;;;;;;;;;;;;;5049595;28;19928;-59
2023/04/27 15:02:42;;;;;;;;;;;;;;;;;;5049029;28;19924;-60
2023/04/27 15:05:08;;;;;;;;;;;;;;;;;;5053682;28;19925;-60
2023/04/27 15:07:34;;;;;;;;;;;;;;;;;;5053161;28;20337;-60
2023/04/27 15:10:01;;;;;;;;;;;;;;;;;;5051817;28;20394;-59
2023/04/27 15:12:26;;;;;;;;;;;;;;;;;;5053387;28;19921;-59
2023/04/27 15:14:52;;;;;;;;;;;;;;;;;;5053348;28;19928;-59
2023/04/27 15:17:18;;;;;;;;;;;;;;;;;;5052956;28;20585;-59
2023/04/27 15:19:44;;;;;;;;;;;;;;;;;;5053359;28;20284;-59
2023/04/27 15:22:10;;;;;;;;;;;;;;;;;;5052929;28;19935;-59
2023/04/27 15:24:36;;;;;;;;;;;;;;;;;;5052374;28;19950;-59
2023/04/27 15:27:02;;;;;;;;;;;;;;;;;;5052991;28;19921;-59
2023/04/27 15:29:28;;;;;;;;;;;;;;;;;;5053245;28;19975;-60
2023/04/27 15:31:54;;;;;;;;;;;;;;;;;;5052353;28;19928;-59
2023/04/27 15:34:21;;;;;;;;;;;;;;;;;;5053050;28;20480;-59
2023/04/27 15:36:46;;;;;;;;;;;;;;;;;;5051527;28;19921;-59
2023/04/27 15:39:12;;;;;;;;;;;;;;;;;;5052484;28;19921;-60
2023/04/27 15:41:39;;;;;;;;;;;;;;;;;;5052615;28;20341;-59
2023/04/27 15:44:05;;;;;;;;;;;;;;;;;;5052823;28;19925;-59
2023/04/27 15:46:31;;;;;;;;;;;;;;;;;;5052449;28;20453;-59
2023/04/27 15:48:57;;;;;;;;;;;;;;;;;;5052720;28;20025;-60
2023/04/27 15:51:23;;;;;;;;;;;;;;;;;;5052544;28;20397;-59
2023/04/27 15:53:49;;;;;;;;;;;;;;;;;;5052788;28;19920;-60
2023/04/27 15:56:15;;;;;;;;;;;;;;;;;;5052448;28;19925;-59
2023/04/27 15:58:41;;;;;;;;;;;;;;;;;;5052496;28;19920;-58
2023/04/27 16:01:07;;;;;;;;;;;;;;;;;;5052351;28;19929;-58
2023/04/27 16:03:33;;;;;;;;;;;;;;;;;;5052076;28;19925;-60
2023/04/27 16:05:59;;;;;;;;;;;;;;;;;;5052252;28;19924;-60
2023/04/27 16:08:26;;;;;;;;;;;;;;;;;;5052410;28;19921;-60
2023/04/27 16:10:52;;;;;;;;;;;;;;;;;;5051764;28;19956;-60
2023/04/27 16:13:18;;;;;;;;;;;;;;;;;;5052118;28;19967;-59
2023/04/27 16:15:44;;;;;;;;;;;;;;;;;;5050914;28;19932;-60
2023/04/27 16:18:10;;;;;;;;;;;;;;;;;;5051692;28;19951;-59
2023/04/27 16:20:36;;;;;;;;;;;;;;;;;;5052060;28;19939;-60
2023/04/27 16:23:01;;;;;;;;;;;;;;;;;;5052072;28;20306;-60
2023/04/27 16:25:27;;;;;;;;;;;;;;;;;;5051468;28;19925;-59
2023/04/27 16:27:53;;;;;;;;;;;;;;;;;;5051884;28;19966;-60
2023/04/27 16:30:19;;;;;;;;;;;;;;;;;;5052153;28;19921;-60
2023/04/27 16:32:45;;;;;;;;;;;;;;;;;;5051101;28;20449;-60
2023/04/27 16:35:11;;;;;;;;;;;;;;;;;;5051902;28;20023;-60
2023/04/27 16:37:37;;;;;;;;;;;;;;;;;;5051624;28;20295;-60